sensor_id;sensor_type;location;lat;lon;timestamp;P1;durP1;ratioP1;P2;durP2;ratioP2
21591;SDS011;10958;50.892;3.992;2023-01-01T00:00:27;6.40;;;2.30;;
21591;SDS011;10958;50.892;3.992;2023-01-01T00:02:52;7.60;;;2.13;;
21591;SDS011;10958;50.892;3.992;2023-01-01T00:05:18;3.75;;;1.95;;
21591;SDS011;10958;50.892;3.992;2023-01-01T00:07:44;7.25;;;2.40;;
21591;SDS011;10958;50.892;3.992;2023-01-01T00:10:10;5.03;;;2.25;;
21591;SDS011;10958;50.892;3.992;2023-01-01T00:12:55;5.55;;;2.35;;
21591;SDS011;10958;50.892;3.992;2023-01-01T00:15:22;8.00;;;2.67;;
21591;SDS011;10958;50.892;3.992;2023-01-01T00:17:48;4.93;;;1.92;;
21591;SDS011;10958;50.892;3.992;2023-01-01T00:20:14;5.22;;;1.90;;
21591;SDS011;10958;50.892;3.992;2023-01-01T00:22:40;7.85;;;2.20;;
21591;SDS011;10958;50.892;3.992;2023-01-01T00:25:10;8.65;;;1.98;;
21591;SDS011;10958;50.892;3.992;2023-01-01T00:27:42;7.03;;;2.05;;
21591;SDS011;10958;50.892;3.992;2023-01-01T00:30:08;4.82;;;1.88;;
21591;SDS011;10958;50.892;3.992;2023-01-01T00:32:35;8.77;;;2.25;;
21591;SDS011;10958;50.892;3.992;2023-01-01T00:35:00;6.03;;;2.10;;
21591;SDS011;10958;50.892;3.992;2023-01-01T00:37:27;8.70;;;1.88;;
21591;SDS011;10958;50.892;3.992;2023-01-01T00:39:53;5.97;;;2.15;;
21591;SDS011;10958;50.892;3.992;2023-01-01T00:42:20;7.97;;;1.95;;
21591;SDS011;10958;50.892;3.992;2023-01-01T00:44:46;9.02;;;2.15;;
21591;SDS011;10958;50.892;3.992;2023-01-01T00:47:12;8.25;;;2.40;;
21591;SDS011;10958;50.892;3.992;2023-01-01T00:49:38;8.70;;;2.13;;
21591;SDS011;10958;50.892;3.992;2023-01-01T00:52:03;7.05;;;1.65;;
21591;SDS011;10958;50.892;3.992;2023-01-01T00:54:29;4.97;;;1.80;;
21591;SDS011;10958;50.892;3.992;2023-01-01T00:56:55;4.75;;;2.00;;
21591;SDS011;10958;50.892;3.992;2023-01-01T00:59:21;6.82;;;1.90;;
21591;SDS011;10958;50.892;3.992;2023-01-01T01:01:47;9.98;;;2.00;;
21591;SDS011;10958;50.892;3.992;2023-01-01T01:04:13;8.93;;;2.05;;
21591;SDS011;10958;50.892;3.992;2023-01-01T01:06:39;10.63;;;2.05;;
21591;SDS011;10958;50.892;3.992;2023-01-01T01:09:07;5.70;;;1.50;;
21591;SDS011;10958;50.892;3.992;2023-01-01T01:11:33;4.65;;;2.00;;
21591;SDS011;10958;50.892;3.992;2023-01-01T01:13:59;7.03;;;2.05;;
21591;SDS011;10958;50.892;3.992;2023-01-01T01:16:26;5.95;;;1.77;;
21591;SDS011;10958;50.892;3.992;2023-01-01T01:18:55;10.27;;;2.33;;
21591;SDS011;10958;50.892;3.992;2023-01-01T01:21:23;8.60;;;1.90;;
21591;SDS011;10958;50.892;3.992;2023-01-01T01:23:50;3.30;;;1.60;;
21591;SDS011;10958;50.892;3.992;2023-01-01T01:26:19;5.43;;;1.77;;
21591;SDS011;10958;50.892;3.992;2023-01-01T01:28:50;9.23;;;2.08;;
21591;SDS011;10958;50.892;3.992;2023-01-01T01:31:19;4.43;;;1.70;;
21591;SDS011;10958;50.892;3.992;2023-01-01T01:33:48;8.02;;;1.75;;
21591;SDS011;10958;50.892;3.992;2023-01-01T01:36:15;7.65;;;2.05;;
21591;SDS011;10958;50.892;3.992;2023-01-01T01:38:42;5.22;;;1.80;;
21591;SDS011;10958;50.892;3.992;2023-01-01T01:41:10;3.80;;;1.60;;
21591;SDS011;10958;50.892;3.992;2023-01-01T01:48:33;5.13;;;1.65;;
21591;SDS011;10958;50.892;3.992;2023-01-01T01:51:04;9.30;;;1.77;;
21591;SDS011;10958;50.892;3.992;2023-01-01T01:53:31;4.90;;;1.52;;
21591;SDS011;10958;50.892;3.992;2023-01-01T01:56:00;11.05;;;2.05;;
21591;SDS011;10958;50.892;3.992;2023-01-01T01:58:29;8.25;;;1.67;;
21591;SDS011;10958;50.892;3.992;2023-01-01T02:00:56;5.10;;;1.60;;
21591;SDS011;10958;50.892;3.992;2023-01-01T02:05:58;6.38;;;1.80;;
21591;SDS011;10958;50.892;3.992;2023-01-01T02:08:24;3.05;;;1.70;;
21591;SDS011;10958;50.892;3.992;2023-01-01T02:10:50;8.93;;;2.10;;
21591;SDS011;10958;50.892;3.992;2023-01-01T02:13:18;4.03;;;1.77;;
21591;SDS011;10958;50.892;3.992;2023-01-01T02:15:51;6.60;;;1.63;;
21591;SDS011;10958;50.892;3.992;2023-01-01T02:18:24;4.03;;;1.50;;
21591;SDS011;10958;50.892;3.992;2023-01-01T02:21:07;6.43;;;1.90;;
21591;SDS011;10958;50.892;3.992;2023-01-01T02:26:53;6.75;;;1.52;;
21591;SDS011;10958;50.892;3.992;2023-01-01T02:32:07;4.88;;;1.80;;
21591;SDS011;10958;50.892;3.992;2023-01-01T02:35:16;7.65;;;1.90;;
21591;SDS011;10958;50.892;3.992;2023-01-01T02:40:55;8.55;;;1.60;;
21591;SDS011;10958;50.892;3.992;2023-01-01T02:43:26;6.97;;;2.05;;
21591;SDS011;10958;50.892;3.992;2023-01-01T02:45:52;5.93;;;1.45;;
21591;SDS011;10958;50.892;3.992;2023-01-01T02:50:59;11.07;;;2.95;;
21591;SDS011;10958;50.892;3.992;2023-01-01T02:53:34;6.65;;;1.80;;
21591;SDS011;10958;50.892;3.992;2023-01-01T02:56:15;6.43;;;1.55;;
21591;SDS011;10958;50.892;3.992;2023-01-01T02:59:00;5.20;;;1.50;;
21591;SDS011;10958;50.892;3.992;2023-01-01T03:02:03;4.72;;;1.42;;
21591;SDS011;10958;50.892;3.992;2023-01-01T03:04:56;4.95;;;1.55;;
21591;SDS011;10958;50.892;3.992;2023-01-01T03:07:35;7.43;;;1.85;;
21591;SDS011;10958;50.892;3.992;2023-01-01T03:16:08;6.50;;;1.50;;
21591;SDS011;10958;50.892;3.992;2023-01-01T03:18:51;8.48;;;2.13;;
21591;SDS011;10958;50.892;3.992;2023-01-01T03:22:00;6.93;;;2.03;;
21591;SDS011;10958;50.892;3.992;2023-01-01T03:24:33;7.25;;;2.00;;
21591;SDS011;10958;50.892;3.992;2023-01-01T03:27:08;9.30;;;1.70;;
21591;SDS011;10958;50.892;3.992;2023-01-01T03:29:43;6.20;;;1.45;;
21591;SDS011;10958;50.892;3.992;2023-01-01T03:32:11;8.50;;;1.98;;
21591;SDS011;10958;50.892;3.992;2023-01-01T03:34:42;7.43;;;1.50;;
21591;SDS011;10958;50.892;3.992;2023-01-01T03:37:15;7.00;;;2.03;;
21591;SDS011;10958;50.892;3.992;2023-01-01T03:39:52;8.75;;;2.30;;
21591;SDS011;10958;50.892;3.992;2023-01-01T03:42:27;7.70;;;1.70;;
21591;SDS011;10958;50.892;3.992;2023-01-01T03:45:07;6.05;;;2.00;;
21591;SDS011;10958;50.892;3.992;2023-01-01T03:47:40;4.80;;;1.70;;
21591;SDS011;10958;50.892;3.992;2023-01-01T03:50:06;5.30;;;1.50;;
21591;SDS011;10958;50.892;3.992;2023-01-01T04:00:19;8.70;;;1.67;;
21591;SDS011;10958;50.892;3.992;2023-01-01T04:02:55;5.75;;;2.10;;
21591;SDS011;10958;50.892;3.992;2023-01-01T04:05:40;6.43;;;1.80;;
21591;SDS011;10958;50.892;3.992;2023-01-01T04:08:08;5.15;;;1.70;;
21591;SDS011;10958;50.892;3.992;2023-01-01T04:10:36;4.43;;;2.10;;
21591;SDS011;10958;50.892;3.992;2023-01-01T04:13:06;7.95;;;1.85;;
21591;SDS011;10958;50.892;3.992;2023-01-01T04:15:32;8.38;;;2.00;;
21591;SDS011;10958;50.892;3.992;2023-01-01T04:18:00;6.68;;;1.70;;
21591;SDS011;10958;50.892;3.992;2023-01-01T04:20:28;8.13;;;2.08;;
21591;SDS011;10958;50.892;3.992;2023-01-01T04:22:55;6.50;;;1.80;;
21591;SDS011;10958;50.892;3.992;2023-01-01T04:25:26;4.30;;;1.50;;
21591;SDS011;10958;50.892;3.992;2023-01-01T04:27:53;4.60;;;1.83;;
21591;SDS011;10958;50.892;3.992;2023-01-01T04:30:23;6.93;;;1.83;;
21591;SDS011;10958;50.892;3.992;2023-01-01T04:32:49;4.10;;;1.65;;
21591;SDS011;10958;50.892;3.992;2023-01-01T04:35:15;9.13;;;1.90;;
21591;SDS011;10958;50.892;3.992;2023-01-01T04:37:42;5.13;;;1.80;;
21591;SDS011;10958;50.892;3.992;2023-01-01T04:40:09;9.40;;;1.85;;
21591;SDS011;10958;50.892;3.992;2023-01-01T04:42:36;5.78;;;1.88;;
21591;SDS011;10958;50.892;3.992;2023-01-01T04:45:02;7.53;;;1.85;;
21591;SDS011;10958;50.892;3.992;2023-01-01T04:47:28;9.30;;;2.13;;
21591;SDS011;10958;50.892;3.992;2023-01-01T04:49:53;5.50;;;1.98;;
21591;SDS011;10958;50.892;3.992;2023-01-01T04:52:21;7.20;;;2.00;;
21591;SDS011;10958;50.892;3.992;2023-01-01T04:54:47;4.13;;;1.60;;
21591;SDS011;10958;50.892;3.992;2023-01-01T04:57:13;7.10;;;2.28;;
21591;SDS011;10958;50.892;3.992;2023-01-01T04:59:40;5.20;;;1.50;;
21591;SDS011;10958;50.892;3.992;2023-01-01T05:02:06;7.10;;;1.63;;
21591;SDS011;10958;50.892;3.992;2023-01-01T05:04:32;7.57;;;1.70;;
21591;SDS011;10958;50.892;3.992;2023-01-01T05:07:00;9.98;;;1.85;;
21591;SDS011;10958;50.892;3.992;2023-01-01T05:09:26;10.57;;;1.75;;
21591;SDS011;10958;50.892;3.992;2023-01-01T05:11:54;8.95;;;2.00;;
21591;SDS011;10958;50.892;3.992;2023-01-01T05:14:20;10.43;;;1.92;;
21591;SDS011;10958;50.892;3.992;2023-01-01T05:16:48;11.30;;;2.08;;
21591;SDS011;10958;50.892;3.992;2023-01-01T05:19:16;5.03;;;1.73;;
21591;SDS011;10958;50.892;3.992;2023-01-01T05:21:42;8.68;;;2.20;;
21591;SDS011;10958;50.892;3.992;2023-01-01T05:24:09;6.05;;;1.70;;
21591;SDS011;10958;50.892;3.992;2023-01-01T05:26:41;8.95;;;2.28;;
21591;SDS011;10958;50.892;3.992;2023-01-01T05:29:08;6.85;;;1.55;;
21591;SDS011;10958;50.892;3.992;2023-01-01T05:31:34;5.20;;;1.60;;
21591;SDS011;10958;50.892;3.992;2023-01-01T05:34:01;5.30;;;1.70;;
21591;SDS011;10958;50.892;3.992;2023-01-01T05:36:29;7.53;;;1.60;;
21591;SDS011;10958;50.892;3.992;2023-01-01T05:38:56;5.70;;;1.73;;
21591;SDS011;10958;50.892;3.992;2023-01-01T05:41:23;7.75;;;1.90;;
21591;SDS011;10958;50.892;3.992;2023-01-01T05:43:50;5.60;;;1.90;;
21591;SDS011;10958;50.892;3.992;2023-01-01T05:46:18;4.95;;;1.80;;
21591;SDS011;10958;50.892;3.992;2023-01-01T05:48:48;6.20;;;1.60;;
21591;SDS011;10958;50.892;3.992;2023-01-01T05:51:16;9.02;;;1.58;;
21591;SDS011;10958;50.892;3.992;2023-01-01T05:56:11;5.00;;;1.50;;
21591;SDS011;10958;50.892;3.992;2023-01-01T05:58:38;4.20;;;1.17;;
21591;SDS011;10958;50.892;3.992;2023-01-01T06:01:14;7.68;;;1.95;;
21591;SDS011;10958;50.892;3.992;2023-01-01T06:03:43;7.88;;;1.95;;
21591;SDS011;10958;50.892;3.992;2023-01-01T06:06:12;7.57;;;1.52;;
21591;SDS011;10958;50.892;3.992;2023-01-01T06:08:51;5.95;;;1.63;;
21591;SDS011;10958;50.892;3.992;2023-01-01T06:11:20;5.32;;;1.83;;
21591;SDS011;10958;50.892;3.992;2023-01-01T06:13:46;4.30;;;1.40;;
21591;SDS011;10958;50.892;3.992;2023-01-01T06:16:15;7.90;;;1.90;;
21591;SDS011;10958;50.892;3.992;2023-01-01T06:18:40;9.25;;;1.58;;
21591;SDS011;10958;50.892;3.992;2023-01-01T06:21:14;8.13;;;1.65;;
21591;SDS011;10958;50.892;3.992;2023-01-01T06:23:42;5.65;;;1.83;;
21591;SDS011;10958;50.892;3.992;2023-01-01T06:26:09;8.85;;;2.17;;
21591;SDS011;10958;50.892;3.992;2023-01-01T06:28:37;10.25;;;1.95;;
21591;SDS011;10958;50.892;3.992;2023-01-01T06:31:07;10.18;;;2.35;;
21591;SDS011;10958;50.892;3.992;2023-01-01T06:33:37;6.47;;;2.30;;
21591;SDS011;10958;50.892;3.992;2023-01-01T06:36:05;6.20;;;2.40;;
21591;SDS011;10958;50.892;3.992;2023-01-01T06:38:33;9.25;;;2.40;;
21591;SDS011;10958;50.892;3.992;2023-01-01T06:41:02;8.50;;;1.95;;
21591;SDS011;10958;50.892;3.992;2023-01-01T06:43:30;5.30;;;1.73;;
21591;SDS011;10958;50.892;3.992;2023-01-01T06:45:58;5.63;;;2.25;;
21591;SDS011;10958;50.892;3.992;2023-01-01T06:48:28;6.40;;;1.98;;
21591;SDS011;10958;50.892;3.992;2023-01-01T06:50:55;6.72;;;2.45;;
21591;SDS011;10958;50.892;3.992;2023-01-01T06:53:24;7.63;;;2.03;;
21591;SDS011;10958;50.892;3.992;2023-01-01T06:55:53;9.43;;;2.13;;
21591;SDS011;10958;50.892;3.992;2023-01-01T06:58:18;6.25;;;2.15;;
21591;SDS011;10958;50.892;3.992;2023-01-01T07:00:44;9.40;;;1.95;;
21591;SDS011;10958;50.892;3.992;2023-01-01T07:03:10;7.53;;;2.30;;
21591;SDS011;10958;50.892;3.992;2023-01-01T07:05:38;8.35;;;2.08;;
21591;SDS011;10958;50.892;3.992;2023-01-01T07:08:04;6.03;;;2.00;;
21591;SDS011;10958;50.892;3.992;2023-01-01T07:10:31;7.95;;;2.22;;
21591;SDS011;10958;50.892;3.992;2023-01-01T07:12:59;9.32;;;2.17;;
21591;SDS011;10958;50.892;3.992;2023-01-01T07:15:25;11.00;;;2.20;;
21591;SDS011;10958;50.892;3.992;2023-01-01T07:17:51;5.53;;;2.35;;
21591;SDS011;10958;50.892;3.992;2023-01-01T07:20:19;8.77;;;2.58;;
21591;SDS011;10958;50.892;3.992;2023-01-01T07:22:45;11.50;;;1.92;;
21591;SDS011;10958;50.892;3.992;2023-01-01T07:25:11;11.02;;;2.70;;
21591;SDS011;10958;50.892;3.992;2023-01-01T07:27:39;14.23;;;2.33;;
21591;SDS011;10958;50.892;3.992;2023-01-01T07:30:05;11.73;;;2.35;;
21591;SDS011;10958;50.892;3.992;2023-01-01T07:32:31;9.75;;;2.83;;
21591;SDS011;10958;50.892;3.992;2023-01-01T07:34:56;7.65;;;2.28;;
21591;SDS011;10958;50.892;3.992;2023-01-01T07:37:22;10.88;;;2.30;;
21591;SDS011;10958;50.892;3.992;2023-01-01T07:39:50;9.30;;;2.38;;
21591;SDS011;10958;50.892;3.992;2023-01-01T07:42:17;8.60;;;2.20;;
21591;SDS011;10958;50.892;3.992;2023-01-01T07:44:43;7.13;;;2.13;;
21591;SDS011;10958;50.892;3.992;2023-01-01T07:49:48;10.63;;;2.38;;
21591;SDS011;10958;50.892;3.992;2023-01-01T07:52:14;4.70;;;1.85;;
21591;SDS011;10958;50.892;3.992;2023-01-01T07:54:42;8.43;;;2.03;;
21591;SDS011;10958;50.892;3.992;2023-01-01T07:57:08;9.30;;;2.10;;
21591;SDS011;10958;50.892;3.992;2023-01-01T07:59:35;11.05;;;2.50;;
21591;SDS011;10958;50.892;3.992;2023-01-01T08:02:01;9.43;;;2.42;;
21591;SDS011;10958;50.892;3.992;2023-01-01T08:04:27;13.40;;;2.67;;
21591;SDS011;10958;50.892;3.992;2023-01-01T08:06:55;12.45;;;2.47;;
21591;SDS011;10958;50.892;3.992;2023-01-01T08:09:21;8.00;;;2.10;;
21591;SDS011;10958;50.892;3.992;2023-01-01T08:11:47;11.63;;;2.58;;
21591;SDS011;10958;50.892;3.992;2023-01-01T08:14:13;8.07;;;2.03;;
21591;SDS011;10958;50.892;3.992;2023-01-01T08:16:39;7.55;;;2.20;;
21591;SDS011;10958;50.892;3.992;2023-01-01T08:19:04;11.82;;;3.55;;
21591;SDS011;10958;50.892;3.992;2023-01-01T08:21:33;12.98;;;3.50;;
21591;SDS011;10958;50.892;3.992;2023-01-01T08:23:58;8.98;;;2.58;;
21591;SDS011;10958;50.892;3.992;2023-01-01T08:26:31;15.05;;;3.05;;
21591;SDS011;10958;50.892;3.992;2023-01-01T08:29:00;18.45;;;2.97;;
21591;SDS011;10958;50.892;3.992;2023-01-01T08:31:31;8.18;;;2.22;;
21591;SDS011;10958;50.892;3.992;2023-01-01T08:33:57;8.90;;;2.63;;
21591;SDS011;10958;50.892;3.992;2023-01-01T08:36:22;7.85;;;2.38;;
21591;SDS011;10958;50.892;3.992;2023-01-01T08:38:48;11.10;;;2.22;;
21591;SDS011;10958;50.892;3.992;2023-01-01T08:41:16;8.73;;;2.35;;
21591;SDS011;10958;50.892;3.992;2023-01-01T08:43:42;10.27;;;2.75;;
21591;SDS011;10958;50.892;3.992;2023-01-01T08:46:08;14.18;;;2.83;;
21591;SDS011;10958;50.892;3.992;2023-01-01T08:48:34;10.70;;;2.22;;
21591;SDS011;10958;50.892;3.992;2023-01-01T08:51:00;11.75;;;2.10;;
21591;SDS011;10958;50.892;3.992;2023-01-01T08:53:26;7.75;;;2.03;;
21591;SDS011;10958;50.892;3.992;2023-01-01T08:55:59;11.40;;;2.17;;
21591;SDS011;10958;50.892;3.992;2023-01-01T08:58:32;13.00;;;1.90;;
21591;SDS011;10958;50.892;3.992;2023-01-01T09:01:01;7.72;;;2.15;;
21591;SDS011;10958;50.892;3.992;2023-01-01T09:03:30;7.55;;;1.70;;
21591;SDS011;10958;50.892;3.992;2023-01-01T09:05:56;12.35;;;2.30;;
21591;SDS011;10958;50.892;3.992;2023-01-01T09:08:22;7.60;;;2.00;;
21591;SDS011;10958;50.892;3.992;2023-01-01T09:10:48;6.13;;;2.05;;
21591;SDS011;10958;50.892;3.992;2023-01-01T09:13:16;10.75;;;2.13;;
21591;SDS011;10958;50.892;3.992;2023-01-01T09:15:45;7.95;;;1.83;;
21591;SDS011;10958;50.892;3.992;2023-01-01T09:18:11;11.88;;;2.33;;
21591;SDS011;10958;50.892;3.992;2023-01-01T09:20:40;9.32;;;2.67;;
21591;SDS011;10958;50.892;3.992;2023-01-01T09:23:06;10.85;;;3.08;;
21591;SDS011;10958;50.892;3.992;2023-01-01T09:25:33;9.60;;;2.42;;
21591;SDS011;10958;50.892;3.992;2023-01-01T09:28:01;6.75;;;2.20;;
21591;SDS011;10958;50.892;3.992;2023-01-01T09:30:28;10.82;;;2.33;;
21591;SDS011;10958;50.892;3.992;2023-01-01T09:32:54;8.68;;;2.20;;
21591;SDS011;10958;50.892;3.992;2023-01-01T09:35:19;7.72;;;2.13;;
21591;SDS011;10958;50.892;3.992;2023-01-01T09:37:45;9.70;;;2.25;;
21591;SDS011;10958;50.892;3.992;2023-01-01T09:40:54;8.82;;;2.00;;
21591;SDS011;10958;50.892;3.992;2023-01-01T09:46:00;7.80;;;1.80;;
21591;SDS011;10958;50.892;3.992;2023-01-01T09:48:30;9.80;;;2.22;;
21591;SDS011;10958;50.892;3.992;2023-01-01T09:50:57;9.02;;;2.53;;
21591;SDS011;10958;50.892;3.992;2023-01-01T09:55:54;11.40;;;2.10;;
21591;SDS011;10958;50.892;3.992;2023-01-01T09:58:23;10.32;;;2.45;;
21591;SDS011;10958;50.892;3.992;2023-01-01T10:00:54;13.23;;;2.30;;
21591;SDS011;10958;50.892;3.992;2023-01-01T10:11:30;6.97;;;1.98;;
21591;SDS011;10958;50.892;3.992;2023-01-01T10:13:59;11.75;;;2.35;;
21591;SDS011;10958;50.892;3.992;2023-01-01T10:16:30;8.68;;;1.70;;
21591;SDS011;10958;50.892;3.992;2023-01-01T10:19:21;8.13;;;1.70;;
21591;SDS011;10958;50.892;3.992;2023-01-01T10:21:56;6.70;;;2.17;;
21591;SDS011;10958;50.892;3.992;2023-01-01T10:24:48;8.50;;;1.92;;
21591;SDS011;10958;50.892;3.992;2023-01-01T10:30:01;8.68;;;2.05;;
21591;SDS011;10958;50.892;3.992;2023-01-01T10:32:32;9.43;;;2.05;;
21591;SDS011;10958;50.892;3.992;2023-01-01T10:34:59;10.07;;;1.83;;
21591;SDS011;10958;50.892;3.992;2023-01-01T10:37:34;10.45;;;2.40;;
21591;SDS011;10958;50.892;3.992;2023-01-01T10:40:05;9.38;;;2.25;;
21591;SDS011;10958;50.892;3.992;2023-01-01T10:42:37;9.15;;;1.90;;
21591;SDS011;10958;50.892;3.992;2023-01-01T10:45:03;12.45;;;2.40;;
21591;SDS011;10958;50.892;3.992;2023-01-01T10:47:30;10.15;;;2.67;;
21591;SDS011;10958;50.892;3.992;2023-01-01T10:52:24;6.72;;;2.10;;
21591;SDS011;10958;50.892;3.992;2023-01-01T10:54:58;10.63;;;2.55;;
21591;SDS011;10958;50.892;3.992;2023-01-01T11:03:32;12.20;;;2.70;;
21591;SDS011;10958;50.892;3.992;2023-01-01T11:06:15;12.30;;;2.95;;
21591;SDS011;10958;50.892;3.992;2023-01-01T11:08:47;15.80;;;4.47;;
21591;SDS011;10958;50.892;3.992;2023-01-01T11:11:27;13.05;;;2.22;;
21591;SDS011;10958;50.892;3.992;2023-01-01T11:13:55;13.80;;;2.33;;
21591;SDS011;10958;50.892;3.992;2023-01-01T11:16:25;12.32;;;2.80;;
21591;SDS011;10958;50.892;3.992;2023-01-01T11:18:59;10.73;;;2.33;;
21591;SDS011;10958;50.892;3.992;2023-01-01T11:21:33;10.98;;;2.85;;
21591;SDS011;10958;50.892;3.992;2023-01-01T11:24:09;11.40;;;2.80;;
21591;SDS011;10958;50.892;3.992;2023-01-01T11:26:48;15.85;;;2.45;;
21591;SDS011;10958;50.892;3.992;2023-01-01T11:31:40;14.10;;;2.28;;
21591;SDS011;10958;50.892;3.992;2023-01-01T11:39:47;7.78;;;1.65;;
21591;SDS011;10958;50.892;3.992;2023-01-01T11:42:23;8.85;;;1.95;;
21591;SDS011;10958;50.892;3.992;2023-01-01T11:44:51;13.07;;;3.90;;
21591;SDS011;10958;50.892;3.992;2023-01-01T11:47:29;10.02;;;1.80;;
21591;SDS011;10958;50.892;3.992;2023-01-01T11:52:45;5.68;;;1.73;;
21591;SDS011;10958;50.892;3.992;2023-01-01T11:55:21;9.38;;;2.25;;
21591;SDS011;10958;50.892;3.992;2023-01-01T12:06:33;8.88;;;1.77;;
21591;SDS011;10958;50.892;3.992;2023-01-01T12:12:26;12.70;;;2.50;;
21591;SDS011;10958;50.892;3.992;2023-01-01T12:15:03;14.77;;;3.85;;
21591;SDS011;10958;50.892;3.992;2023-01-01T12:22:56;16.13;;;3.33;;
21591;SDS011;10958;50.892;3.992;2023-01-01T12:25:25;16.77;;;2.92;;
21591;SDS011;10958;50.892;3.992;2023-01-01T12:29:01;8.63;;;2.30;;
21591;SDS011;10958;50.892;3.992;2023-01-01T12:34:35;8.10;;;2.22;;
21591;SDS011;10958;50.892;3.992;2023-01-01T12:37:09;10.25;;;2.15;;
21591;SDS011;10958;50.892;3.992;2023-01-01T12:54:01;11.90;;;2.60;;
21591;SDS011;10958;50.892;3.992;2023-01-01T12:56:45;9.68;;;2.65;;
21591;SDS011;10958;50.892;3.992;2023-01-01T12:59:22;11.68;;;2.75;;
21591;SDS011;10958;50.892;3.992;2023-01-01T13:01:54;8.15;;;2.47;;
21591;SDS011;10958;50.892;3.992;2023-01-01T13:04:22;14.00;;;2.87;;
21591;SDS011;10958;50.892;3.992;2023-01-01T13:07:02;13.70;;;2.20;;
21591;SDS011;10958;50.892;3.992;2023-01-01T13:09:35;13.20;;;3.35;;
21591;SDS011;10958;50.892;3.992;2023-01-01T13:12:30;12.32;;;3.50;;
21591;SDS011;10958;50.892;3.992;2023-01-01T13:14:57;8.27;;;2.60;;
21591;SDS011;10958;50.892;3.992;2023-01-01T13:17:24;12.63;;;2.55;;
21591;SDS011;10958;50.892;3.992;2023-01-01T13:33:16;12.60;;;3.22;;
21591;SDS011;10958;50.892;3.992;2023-01-01T13:43:51;12.95;;;3.47;;
21591;SDS011;10958;50.892;3.992;2023-01-01T13:46:19;16.80;;;3.85;;
21591;SDS011;10958;50.892;3.992;2023-01-01T14:00:24;11.60;;;2.90;;
21591;SDS011;10958;50.892;3.992;2023-01-01T14:02:59;9.02;;;2.83;;
21591;SDS011;10958;50.892;3.992;2023-01-01T14:07:59;10.55;;;2.83;;
21591;SDS011;10958;50.892;3.992;2023-01-01T14:10:29;9.85;;;2.35;;
21591;SDS011;10958;50.892;3.992;2023-01-01T14:13:17;11.02;;;2.67;;
21591;SDS011;10958;50.892;3.992;2023-01-01T14:15:45;11.60;;;3.38;;
21591;SDS011;10958;50.892;3.992;2023-01-01T14:18:20;8.85;;;2.78;;
21591;SDS011;10958;50.892;3.992;2023-01-01T14:20:52;13.45;;;3.33;;
21591;SDS011;10958;50.892;3.992;2023-01-01T14:23:32;9.23;;;2.40;;
21591;SDS011;10958;50.892;3.992;2023-01-01T14:26:01;9.48;;;3.85;;
21591;SDS011;10958;50.892;3.992;2023-01-01T14:28:31;12.13;;;2.90;;
21591;SDS011;10958;50.892;3.992;2023-01-01T14:30:59;12.10;;;2.95;;
21591;SDS011;10958;50.892;3.992;2023-01-01T14:33:30;9.02;;;2.40;;
21591;SDS011;10958;50.892;3.992;2023-01-01T14:36:05;7.18;;;2.53;;
21591;SDS011;10958;50.892;3.992;2023-01-01T14:38:46;8.75;;;2.28;;
21591;SDS011;10958;50.892;3.992;2023-01-01T14:41:26;11.27;;;2.53;;
21591;SDS011;10958;50.892;3.992;2023-01-01T14:46:34;11.77;;;3.35;;
21591;SDS011;10958;50.892;3.992;2023-01-01T14:49:09;12.32;;;2.50;;
21591;SDS011;10958;50.892;3.992;2023-01-01T14:51:40;11.07;;;3.20;;
21591;SDS011;10958;50.892;3.992;2023-01-01T14:54:14;16.33;;;4.35;;
21591;SDS011;10958;50.892;3.992;2023-01-01T14:56:43;9.15;;;3.10;;
21591;SDS011;10958;50.892;3.992;2023-01-01T14:59:13;11.85;;;3.45;;
21591;SDS011;10958;50.892;3.992;2023-01-01T15:01:57;8.68;;;2.50;;
21591;SDS011;10958;50.892;3.992;2023-01-01T15:04:26;13.82;;;2.92;;
21591;SDS011;10958;50.892;3.992;2023-01-01T15:06:54;8.65;;;3.00;;
21591;SDS011;10958;50.892;3.992;2023-01-01T15:09:21;9.85;;;3.05;;
21591;SDS011;10958;50.892;3.992;2023-01-01T15:11:51;15.18;;;2.80;;
21591;SDS011;10958;50.892;3.992;2023-01-01T15:19:34;9.82;;;2.80;;
21591;SDS011;10958;50.892;3.992;2023-01-01T15:22:06;12.32;;;2.00;;
21591;SDS011;10958;50.892;3.992;2023-01-01T15:24:35;9.88;;;2.72;;
21591;SDS011;10958;50.892;3.992;2023-01-01T15:27:04;11.23;;;2.38;;
21591;SDS011;10958;50.892;3.992;2023-01-01T15:29:43;9.60;;;2.72;;
21591;SDS011;10958;50.892;3.992;2023-01-01T15:32:14;9.20;;;2.50;;
21591;SDS011;10958;50.892;3.992;2023-01-01T15:34:48;9.25;;;2.55;;
21591;SDS011;10958;50.892;3.992;2023-01-01T15:37:26;6.43;;;2.85;;
21591;SDS011;10958;50.892;3.992;2023-01-01T15:42:38;8.60;;;2.88;;
21591;SDS011;10958;50.892;3.992;2023-01-01T15:45:17;8.82;;;2.85;;
21591;SDS011;10958;50.892;3.992;2023-01-01T15:47:43;9.38;;;2.55;;
21591;SDS011;10958;50.892;3.992;2023-01-01T15:50:25;9.50;;;2.50;;
21591;SDS011;10958;50.892;3.992;2023-01-01T15:52:55;8.18;;;2.50;;
21591;SDS011;10958;50.892;3.992;2023-01-01T15:55:24;7.20;;;2.13;;
21591;SDS011;10958;50.892;3.992;2023-01-01T15:57:52;7.30;;;2.10;;
21591;SDS011;10958;50.892;3.992;2023-01-01T16:00:19;6.78;;;2.33;;
21591;SDS011;10958;50.892;3.992;2023-01-01T16:02:48;6.18;;;2.22;;
21591;SDS011;10958;50.892;3.992;2023-01-01T16:05:17;7.35;;;2.45;;
21591;SDS011;10958;50.892;3.992;2023-01-01T16:07:52;9.30;;;2.67;;
21591;SDS011;10958;50.892;3.992;2023-01-01T16:10:24;7.28;;;2.20;;
21591;SDS011;10958;50.892;3.992;2023-01-01T16:12:50;9.80;;;2.22;;
21591;SDS011;10958;50.892;3.992;2023-01-01T16:15:18;10.35;;;2.10;;
21591;SDS011;10958;50.892;3.992;2023-01-01T16:17:46;9.65;;;2.13;;
21591;SDS011;10958;50.892;3.992;2023-01-01T16:20:13;13.60;;;2.65;;
21591;SDS011;10958;50.892;3.992;2023-01-01T16:22:40;8.32;;;2.35;;
21591;SDS011;10958;50.892;3.992;2023-01-01T16:25:17;6.97;;;2.40;;
21591;SDS011;10958;50.892;3.992;2023-01-01T16:27:45;8.18;;;2.13;;
21591;SDS011;10958;50.892;3.992;2023-01-01T16:30:13;5.57;;;1.97;;
21591;SDS011;10958;50.892;3.992;2023-01-01T16:32:40;7.57;;;2.28;;
21591;SDS011;10958;50.892;3.992;2023-01-01T16:35:11;7.97;;;2.65;;
21591;SDS011;10958;50.892;3.992;2023-01-01T16:37:38;4.95;;;2.03;;
21591;SDS011;10958;50.892;3.992;2023-01-01T16:40:04;7.57;;;2.70;;
21591;SDS011;10958;50.892;3.992;2023-01-01T16:42:36;8.88;;;2.92;;
21591;SDS011;10958;50.892;3.992;2023-01-01T16:45:03;10.55;;;3.15;;
21591;SDS011;10958;50.892;3.992;2023-01-01T16:47:31;9.38;;;3.83;;
21591;SDS011;10958;50.892;3.992;2023-01-01T16:49:57;9.70;;;3.80;;
21591;SDS011;10958;50.892;3.992;2023-01-01T16:52:24;6.97;;;3.10;;
21591;SDS011;10958;50.892;3.992;2023-01-01T16:54:50;8.75;;;3.35;;
21591;SDS011;10958;50.892;3.992;2023-01-01T16:57:15;12.50;;;3.45;;
21591;SDS011;10958;50.892;3.992;2023-01-01T16:59:41;8.50;;;3.00;;
21591;SDS011;10958;50.892;3.992;2023-01-01T17:02:09;7.45;;;2.45;;
21591;SDS011;10958;50.892;3.992;2023-01-01T17:04:37;11.48;;;2.78;;
21591;SDS011;10958;50.892;3.992;2023-01-01T17:07:03;8.38;;;2.63;;
21591;SDS011;10958;50.892;3.992;2023-01-01T17:09:29;7.43;;;2.72;;
21591;SDS011;10958;50.892;3.992;2023-01-01T17:12:00;8.90;;;2.58;;
21591;SDS011;10958;50.892;3.992;2023-01-01T17:14:25;10.45;;;2.65;;
21591;SDS011;10958;50.892;3.992;2023-01-01T17:16:51;5.82;;;2.13;;
21591;SDS011;10958;50.892;3.992;2023-01-01T17:19:19;11.73;;;3.35;;
21591;SDS011;10958;50.892;3.992;2023-01-01T17:21:45;8.60;;;2.55;;
21591;SDS011;10958;50.892;3.992;2023-01-01T17:24:11;7.05;;;2.85;;
21591;SDS011;10958;50.892;3.992;2023-01-01T17:26:40;8.50;;;2.33;;
21591;SDS011;10958;50.892;3.992;2023-01-01T17:29:05;10.48;;;2.92;;
21591;SDS011;10958;50.892;3.992;2023-01-01T17:31:34;6.82;;;2.45;;
21591;SDS011;10958;50.892;3.992;2023-01-01T17:33:59;6.13;;;2.10;;